Time;durP1;ratioP1;P1;durP2;ratioP2;P2;SDS_P1;SDS_P2;PMS_P1;PMS_P2;Temp;Humidity;BMP_temperature;BMP_pressure;BME280_temperature;BME280_humidity;BME280_pressure;Samples;Min_cycle;Max_cycle;Signal;HPM_P1;HPM_P2
2023/05/18 00:01:20;;;;;;;;;;;;;;;13.99;45.92;96954.56;4224163;28;5742;-66
2023/05/18 00:03:27;;;;;;;;;;;;;;;13.91;46.27;96936.19;4230484;28;5632;-65
2023/05/18 00:05:33;;;;;;;;;;;;;;;13.86;46.18;96951.97;4234017;28;5660;-66
2023/05/18 00:07:36;;;;;;;;;;;;;;;13.85;46.25;96939.69;4233653;28;5349;-65
2023/05/18 00:09:40;;;;;;;;;;;;;;;13.85;46.37;96952.16;4234085;28;7693;-66
2023/05/18 00:11:42;;;;;;;;;;;;;;;13.82;46.36;96948.09;4233661;28;5644;-66
2023/05/18 00:13:45;;;;;;;;;;;;;;;13.80;46.62;96942.16;4234108;28;5753;-66
2023/05/18 00:15:48;;;;;;;;;;;;;;;13.80;46.58;96947.47;4234121;28;5618;-66
2023/05/18 00:17:52;;;;;;;;;;;;;;;13.78;46.41;96948.72;4234225;28;5606;-66
2023/05/18 00:19:57;;;;;;;;;;;;;;;13.77;46.65;96937.25;4233242;28;5748;-66
2023/05/18 00:22:01;;;;;;;;;;;;;;;13.76;46.84;96943.59;4235942;28;5730;-66
2023/05/18 00:24:04;;;;;;;;;;;;;;;13.78;46.49;96936.22;4237730;27;5590;-66
2023/05/18 00:26:07;;;;;;;;;;;;;;;13.75;46.74;96931.34;4237598;28;5749;-66
2023/05/18 00:28:11;;;;;;;;;;;;;;;13.76;46.84;96929.50;4229445;27;5686;-66
2023/05/18 00:30:14;;;;;;;;;;;;;;;13.73;47.07;96938.72;4229026;28;5597;-66
2023/05/18 00:32:17;;;;;;;;;;;;;;;13.74;46.76;96924.41;4220253;28;6351;-65
2023/05/18 00:34:20;;;;;;;;;;;;;;;13.74;47.02;96927.06;4229927;28;5614;-66
2023/05/18 00:36:24;;;;;;;;;;;;;;;13.69;46.93;96940.16;4227347;28;5677;-67
2023/05/18 00:38:27;;;;;;;;;;;;;;;13.65;46.83;96928.31;4231064;28;5753;-64
2023/05/18 00:40:30;;;;;;;;;;;;;;;13.63;47.11;96936.50;4237166;28;5590;-65
2023/05/18 00:42:33;;;;;;;;;;;;;;;13.61;47.24;96925.25;4237393;28;5609;-64
2023/05/18 00:44:36;;;;;;;;;;;;;;;13.63;47.00;96920.56;4237071;28;5640;-64
2023/05/18 00:46:38;;;;;;;;;;;;;;;13.60;47.11;96917.50;4237120;27;5605;-65
2023/05/18 00:48:42;;;;;;;;;;;;;;;13.56;47.51;96926.91;4237165;28;5594;-65
2023/05/18 00:50:45;;;;;;;;;;;;;;;13.55;47.42;96927.94;4236995;28;5726;-65
2023/05/18 00:52:50;;;;;;;;;;;;;;;13.57;47.34;96936.50;4236894;28;5701;-64
2023/05/18 00:54:53;;;;;;;;;;;;;;;13.53;47.42;96929.97;4236930;28;5775;-65
2023/05/18 00:57:00;;;;;;;;;;;;;;;13.61;47.56;96921.78;4234905;28;5655;-64
2023/05/18 00:59:03;;;;;;;;;;;;;;;13.65;47.51;96920.34;4237089;28;5635;-64
2023/05/18 01:01:08;;;;;;;;;;;;;;;13.63;47.44;96935.69;4220403;28;5654;-65
2023/05/18 01:03:14;;;;;;;;;;;;;;;13.62;47.33;96926.09;4228182;28;5714;-65
2023/05/18 01:05:18;;;;;;;;;;;;;;;13.64;47.63;96926.69;4219621;28;5836;-65
2023/05/18 01:07:25;;;;;;;;;;;;;;;13.62;47.68;96928.75;4230728;28;5827;-65
2023/05/18 01:09:29;;;;;;;;;;;;;;;13.58;47.59;96915.03;4236492;28;6345;-65
2023/05/18 01:11:43;;;;;;;;;;;;;;;13.58;47.60;96935.47;4236095;28;6544;-66
2023/05/18 01:13:54;;;;;;;;;;;;;;;13.51;47.52;96932.03;4228231;28;5610;-63
2023/05/18 01:16:01;;;;;;;;;;;;;;;13.52;47.72;96931.00;4236559;28;5713;-65
2023/05/18 01:18:13;;;;;;;;;;;;;;;13.48;47.86;96935.09;4236307;28;5724;-65
2023/05/18 01:20:32;;;;;;;;;;;;;;;13.50;48.08;96936.53;4219759;28;5862;-65
2023/05/18 01:23:00;;;;;;;;;;;;;;;13.48;48.04;96933.28;4231274;28;5601;-65
2023/05/18 01:25:13;;;;;;;;;;;;;;;13.42;48.05;96927.97;4229506;28;6446;-65
2023/05/18 01:27:18;;;;;;;;;;;;;;;13.38;48.35;96939.00;4222879;28;5832;-65
2023/05/18 01:29:21;;;;;;;;;;;;;;;13.43;48.39;96932.25;4236819;28;5067;-65
2023/05/18 01:31:24;;;;;;;;;;;;;;;13.42;48.16;96927.97;4235858;28;5629;-65
2023/05/18 01:33:27;;;;;;;;;;;;;;;13.42;48.35;96934.09;4236206;28;5721;-65
2023/05/18 01:35:30;;;;;;;;;;;;;;;13.46;48.12;96934.47;4235925;28;5742;-64
2023/05/18 01:37:34;;;;;;;;;;;;;;;13.45;48.33;96920.38;4234359;28;5759;-65
2023/05/18 01:39:37;;;;;;;;;;;;;;;13.45;48.00;96928.34;4233918;28;5708;-65
2023/05/18 01:41:45;;;;;;;;;;;;;;;13.48;48.17;96927.97;4231605;28;7906;-65
2023/05/18 01:43:58;;;;;;;;;;;;;;;13.46;48.05;96919.38;4235518;28;5840;-65
2023/05/18 01:46:08;;;;;;;;;;;;;;;13.44;48.20;96937.34;4226975;28;5615;-65
2023/05/18 01:48:16;;;;;;;;;;;;;;;13.39;48.27;96927.38;4235600;28;5634;-65
2023/05/18 01:50:26;;;;;;;;;;;;;;;13.37;48.33;96921.44;4229660;28;5613;-65
2023/05/18 01:52:35;;;;;;;;;;;;;;;13.36;48.64;96919.81;4224246;28;5620;-64
2023/05/18 01:54:42;;;;;;;;;;;;;;;13.34;48.64;96935.13;4222322;28;5736;-65
2023/05/18 01:56:48;;;;;;;;;;;;;;;13.27;48.81;96921.06;4229634;28;5644;-65
2023/05/18 01:58:53;;;;;;;;;;;;;;;13.25;48.57;96939.03;4234684;27;5594;-66
2023/05/18 02:00:56;;;;;;;;;;;;;;;13.26;48.74;96924.72;4227358;28;5770;-65
2023/05/18 02:02:59;;;;;;;;;;;;;;;13.27;48.89;96936.97;4207834;28;6478;-65
2023/05/18 02:05:04;;;;;;;;;;;;;;;13.29;48.98;96928.81;4228517;28;5583;-65
2023/05/18 02:07:07;;;;;;;;;;;;;;;13.32;48.52;96931.84;4234494;28;5661;-65
2023/05/18 02:09:11;;;;;;;;;;;;;;;13.25;48.74;96925.75;4232912;28;5590;-65
2023/05/18 02:11:13;;;;;;;;;;;;;;;13.26;48.65;96932.69;4230206;28;5590;-64
2023/05/18 02:13:16;;;;;;;;;;;;;;;13.29;48.85;96919.00;4226731;28;6387;-66
2023/05/18 02:15:21;;;;;;;;;;;;;;;13.29;48.83;96928.81;4220639;28;5796;-65
2023/05/18 02:17:24;;;;;;;;;;;;;;;13.30;48.55;96933.09;4234893;28;5107;-64
2023/05/18 02:19:29;;;;;;;;;;;;;;;13.30;48.71;96928.59;4235741;27;5628;-64
2023/05/18 02:21:33;;;;;;;;;;;;;;;13.29;48.68;96934.13;4235704;28;5881;-65
2023/05/18 02:23:36;;;;;;;;;;;;;;;13.27;49.06;96926.38;4235484;28;5606;-65
2023/05/18 02:25:39;;;;;;;;;;;;;;;13.27;48.81;96931.66;4235620;28;5590;-65
2023/05/18 02:27:42;;;;;;;;;;;;;;;13.19;49.08;96929.22;4230977;28;5685;-65
2023/05/18 02:29:45;;;;;;;;;;;;;;;13.25;48.76;96927.56;4231595;28;5689;-65
2023/05/18 02:31:49;;;;;;;;;;;;;;;13.20;48.86;96936.16;4235068;28;5762;-65
2023/05/18 02:33:53;;;;;;;;;;;;;;;13.16;49.08;96932.28;4235328;28;5700;-65
2023/05/18 02:35:56;;;;;;;;;;;;;;;13.20;49.30;96928.19;4234713;28;5597;-64
2023/05/18 02:37:59;;;;;;;;;;;;;;;13.19;49.25;96934.53;4235277;28;5404;-64
2023/05/18 02:40:04;;;;;;;;;;;;;;;13.13;49.01;96922.84;4226182;28;7684;-65
2023/05/18 02:42:07;;;;;;;;;;;;;;;13.15;49.29;96929.81;4232516;28;5602;-65
2023/05/18 02:44:11;;;;;;;;;;;;;;;13.12;49.13;96931.03;4233763;28;5667;-64
2023/05/18 02:46:14;;;;;;;;;;;;;;;13.12;49.44;96925.72;4227340;28;5594;-64
2023/05/18 02:48:18;;;;;;;;;;;;;;;13.12;49.09;96925.72;4235417;28;5608;-64
2023/05/18 02:50:21;;;;;;;;;;;;;;;13.13;49.13;96936.13;4223564;28;5638;-65
2023/05/18 02:52:24;;;;;;;;;;;;;;;13.16;49.25;96940.22;4231432;28;5705;-65
2023/05/18 02:54:27;;;;;;;;;;;;;;;13.15;49.01;96933.28;4234233;27;5602;-66
2023/05/18 02:56:31;;;;;;;;;;;;;;;13.10;49.34;96939.19;4234872;28;5821;-65
2023/05/18 02:58:34;;;;;;;;;;;;;;;13.12;49.35;96934.50;4235352;28;5663;-65
2023/05/18 03:00:37;;;;;;;;;;;;;;;13.12;49.15;96928.38;4227734;28;5682;-65
2023/05/18 03:02:40;;;;;;;;;;;;;;;13.10;49.41;96941.84;4233727;28;5677;-65
2023/05/18 03:04:46;;;;;;;;;;;;;;;13.07;49.66;96936.97;4234036;28;5655;-65
2023/05/18 03:06:52;;;;;;;;;;;;;;;13.08;49.53;96935.13;4233166;28;5590;-65
2023/05/18 03:08:55;;;;;;;;;;;;;;;13.08;49.29;96940.44;4232799;28;5586;-65
2023/05/18 03:10:58;;;;;;;;;;;;;;;13.06;49.23;96945.94;4224475;28;5742;-66
2023/05/18 03:13:01;;;;;;;;;;;;;;;13.08;49.72;96943.09;4232781;28;5083;-66
2023/05/18 03:15:05;;;;;;;;;;;;;;;13.08;49.62;96948.41;4225099;28;7695;-65
2023/05/18 03:17:08;;;;;;;;;;;;;;;13.05;49.34;96954.94;4232846;28;5594;-64
2023/05/18 03:19:13;;;;;;;;;;;;;;;13.07;49.77;96957.38;4225853;28;6414;-64
2023/05/18 03:21:17;;;;;;;;;;;;;;;13.17;49.33;96955.13;4234718;28;5669;-64
2023/05/18 03:23:20;;;;;;;;;;;;;;;13.22;49.39;96950.03;4233410;28;6280;-65
2023/05/18 03:25:24;;;;;;;;;;;;;;;13.17;49.42;96963.09;4234400;28;5606;-64
2023/05/18 03:27:27;;;;;;;;;;;;;;;13.20;49.57;96961.91;4234422;28;5756;-64
2023/05/18 03:29:30;;;;;;;;;;;;;;;13.23;49.48;96956.97;4233747;28;5708;-65
2023/05/18 03:31:33;;;;;;;;;;;;;;;13.26;49.03;96961.91;4233074;28;5659;-65
2023/05/18 03:33:36;;;;;;;;;;;;;;;13.28;49.14;96959.84;4234524;28;5658;-65
2023/05/18 03:35:40;;;;;;;;;;;;;;;13.31;49.05;96959.44;4234601;28;5586;-65
2023/05/18 03:37:44;;;;;;;;;;;;;;;13.36;49.34;96964.09;4234656;28;5609;-65
2023/05/18 03:39:47;;;;;;;;;;;;;;;13.44;48.98;96961.25;4233706;28;5826;-65
2023/05/18 03:41:50;;;;;;;;;;;;;;;13.47;49.13;96968.78;4230725;28;5784;-65
2023/05/18 03:43:52;;;;;;;;;;;;;;;13.46;49.10;96963.69;4233171;28;5712;-66
2023/05/18 03:45:55;;;;;;;;;;;;;;;13.55;49.07;96970.44;4233449;28;5606;-65
2023/05/18 03:47:58;;;;;;;;;;;;;;;13.56;48.85;96961.44;4221958;28;5606;-65
2023/05/18 03:50:02;;;;;;;;;;;;;;;13.47;49.08;96971.44;4233413;28;5747;-65
2023/05/18 03:52:05;;;;;;;;;;;;;;;13.47;48.88;96962.66;4233084;27;5591;-66
2023/05/18 03:54:09;;;;;;;;;;;;;;;13.52;48.87;96971.66;4233663;28;5605;-65
2023/05/18 03:56:13;;;;;;;;;;;;;;;13.57;48.80;96982.47;4225943;28;6033;-66
2023/05/18 03:58:16;;;;;;;;;;;;;;;13.57;49.02;96979.00;4221310;28;5609;-66
2023/05/18 04:00:19;;;;;;;;;;;;;;;13.53;48.83;96983.09;4219704;28;5602;-64
2023/05/18 04:02:22;;;;;;;;;;;;;;;13.54;49.11;96984.72;4233229;28;6307;-65
2023/05/18 04:04:26;;;;;;;;;;;;;;;13.52;49.17;96987.59;4229566;28;5803;-65
2023/05/18 04:06:29;;;;;;;;;;;;;;;13.55;48.85;96992.50;4231744;28;5648;-65
2023/05/18 04:08:33;;;;;;;;;;;;;;;13.55;48.74;96986.38;4234054;28;5758;-66
2023/05/18 04:10:37;;;;;;;;;;;;;;;13.61;49.12;96985.53;4233462;28;5593;-70
2023/05/18 04:12:40;;;;;;;;;;;;;;;13.69;48.93;96994.09;4225609;28;5636;-66
2023/05/18 04:14:48;;;;;;;;;;;;;;;13.75;49.05;96991.66;4229532;28;5752;-66
2023/05/18 04:16:52;;;;;;;;;;;;;;;13.75;48.92;96994.31;4230541;28;6490;-66
2023/05/18 04:18:55;;;;;;;;;;;;;;;13.73;48.74;96999.00;4225264;28;5598;-66
2023/05/18 04:20:59;;;;;;;;;;;;;;;13.70;48.79;97000.22;4225520;28;5853;-66
2023/05/18 04:23:02;;;;;;;;;;;;;;;13.65;49.07;96994.72;4225130;28;5716;-66
2023/05/18 04:25:06;;;;;;;;;;;;;;;13.58;48.74;97001.88;4232859;28;5750;-66
2023/05/18 04:27:10;;;;;;;;;;;;;;;13.45;49.18;97001.91;4233950;28;5640;-65
2023/05/18 04:29:14;;;;;;;;;;;;;;;13.46;48.98;97008.84;4216977;28;5609;-64
2023/05/18 04:31:17;;;;;;;;;;;;;;;13.48;49.24;97002.31;4231325;28;6468;-64
2023/05/18 04:33:20;;;;;;;;;;;;;;;13.55;49.10;97004.97;4227716;28;5683;-65
2023/05/18 04:35:23;;;;;;;;;;;;;;;13.62;49.02;97013.75;4227081;28;5594;-64
2023/05/18 04:37:27;;;;;;;;;;;;;;;13.68;48.81;96996.97;4234201;28;5777;-65
2023/05/18 04:39:30;;;;;;;;;;;;;;;13.74;49.03;97009.44;4230140;28;5752;-65
2023/05/18 04:41:33;;;;;;;;;;;;;;;13.74;48.93;97016.59;4221529;28;5850;-65
2023/05/18 04:43:37;;;;;;;;;;;;;;;13.74;49.03;97014.75;4227608;28;5647;-65
2023/05/18 04:45:41;;;;;;;;;;;;;;;13.79;49.06;97009.59;4220517;28;5613;-65
2023/05/18 04:47:45;;;;;;;;;;;;;;;13.83;48.68;97021.47;4232432;28;5675;-65
2023/05/18 04:49:51;;;;;;;;;;;;;;;13.86;48.72;97021.06;4230091;28;5815;-65
2023/05/18 04:51:55;;;;;;;;;;;;;;;13.90;48.76;97016.94;4217195;28;5613;-64
2023/05/18 04:53:58;;;;;;;;;;;;;;;13.92;48.83;97016.72;4230502;28;5688;-65
2023/05/18 04:56:01;;;;;;;;;;;;;;;13.93;48.85;97016.53;4231977;28;5651;-64
2023/05/18 04:58:04;;;;;;;;;;;;;;;13.99;48.62;97020.19;4233890;28;5652;-64
2023/05/18 05:00:11;;;;;;;;;;;;;;;14.03;48.96;97032.03;4221081;28;5751;-64
2023/05/18 05:02:14;;;;;;;;;;;;;;;13.96;48.64;97026.75;4225270;28;5651;-65
2023/05/18 05:04:17;;;;;;;;;;;;;;;13.89;48.72;97033.09;4228268;28;5775;-65
2023/05/18 05:06:20;;;;;;;;;;;;;;;13.88;48.81;97029.63;4227230;28;5619;-64
2023/05/18 05:08:23;;;;;;;;;;;;;;;13.95;48.68;97043.72;4225102;28;5605;-64
2023/05/18 05:10:27;;;;;;;;;;;;;;;13.97;48.83;97028.38;4230643;28;5648;-65
2023/05/18 05:12:30;;;;;;;;;;;;;;;14.01;48.93;97034.09;4226577;28;5628;-65
2023/05/18 05:14:33;;;;;;;;;;;;;;;13.92;48.67;97038.81;4226493;28;5845;-65
2023/05/18 05:16:38;;;;;;;;;;;;;;;13.95;49.00;97041.06;4226782;28;5763;-65
2023/05/18 05:18:41;;;;;;;;;;;;;;;14.03;48.96;97039.19;4236806;28;5650;-65
2023/05/18 05:20:45;;;;;;;;;;;;;;;14.02;48.59;97046.34;4236612;28;6137;-65
2023/05/18 05:22:48;;;;;;;;;;;;;;;14.08;48.82;97042.06;4236722;28;5114;-65
2023/05/18 05:24:51;;;;;;;;;;;;;;;14.12;48.52;97037.94;4233515;28;5647;-65
2023/05/18 05:26:54;;;;;;;;;;;;;;;14.04;48.69;97048.78;4236424;28;5778;-65
2023/05/18 05:28:57;;;;;;;;;;;;;;;13.90;48.76;97048.84;4236511;28;5841;-65
2023/05/18 05:31:00;;;;;;;;;;;;;;;13.90;49.17;97051.50;4236157;28;5658;-65
2023/05/18 05:33:05;;;;;;;;;;;;;;;13.89;48.89;97046.38;4236495;28;5715;-66
2023/05/18 05:35:08;;;;;;;;;;;;;;;13.85;49.22;97051.31;4235927;28;5736;-66
2023/05/18 05:37:11;;;;;;;;;;;;;;;13.95;49.11;97058.84;4236572;28;5635;-66
2023/05/18 05:39:14;;;;;;;;;;;;;;;14.04;48.84;97062.09;4236353;28;5659;-66
2023/05/18 05:41:17;;;;;;;;;;;;;;;14.02;48.66;97056.97;4234126;28;5606;-65
2023/05/18 05:43:20;;;;;;;;;;;;;;;14.05;49.12;97053.94;4236208;28;6485;-66
2023/05/18 05:45:23;;;;;;;;;;;;;;;14.09;48.79;97056.97;4236285;28;5841;-66
2023/05/18 05:47:26;;;;;;;;;;;;;;;14.14;48.65;97054.50;4235138;28;5597;-66
2023/05/18 05:49:31;;;;;;;;;;;;;;;14.12;48.89;97056.56;4232161;28;5792;-65
2023/05/18 05:51:34;;;;;;;;;;;;;;;14.06;48.58;97060.06;4233166;28;5798;-65
2023/05/18 05:53:37;;;;;;;;;;;;;;;14.04;48.87;97070.06;4221801;28;6452;-67
2023/05/18 05:55:40;;;;;;;;;;;;;;;14.05;48.99;97067.22;4235876;28;5673;-65
2023/05/18 05:57:44;;;;;;;;;;;;;;;14.15;48.93;97058.78;4236287;28;5644;-65
2023/05/18 05:59:47;;;;;;;;;;;;;;;14.26;48.50;97063.47;4236359;27;5659;-65
2023/05/18 06:01:50;;;;;;;;;;;;;;;14.30;48.80;97072.66;4235853;28;5668;-65
2023/05/18 06:03:53;;;;;;;;;;;;;;;14.36;48.59;97074.47;4236192;27;5779;-65
2023/05/18 06:05:58;;;;;;;;;;;;;;;14.41;48.34;97069.34;4231374;28;5585;-65
2023/05/18 06:08:00;;;;;;;;;;;;;;;14.46;48.50;97064.25;4222735;28;5814;-65
2023/05/18 06:10:04;;;;;;;;;;;;;;;14.54;48.61;97072.00;4222425;28;5793;-65
2023/05/18 06:12:08;;;;;;;;;;;;;;;14.59;48.56;97073.19;4227535;28;7839;-64
2023/05/18 06:14:11;;;;;;;;;;;;;;;14.63;48.34;97077.09;4233966;28;5797;-65
2023/05/18 06:16:14;;;;;;;;;;;;;;;14.63;48.36;97074.41;4226450;28;5726;-66
2023/05/18 06:18:17;;;;;;;;;;;;;;;14.68;48.24;97075.41;4233487;28;5589;-66
2023/05/18 06:20:20;;;;;;;;;;;;;;;14.76;48.13;97079.69;4233174;28;5629;-65
2023/05/18 06:22:24;;;;;;;;;;;;;;;14.72;48.11;97081.09;4233693;27;5694;-65
2023/05/18 06:24:27;;;;;;;;;;;;;;;14.69;48.27;97079.69;4227712;28;5755;-64
2023/05/18 06:26:30;;;;;;;;;;;;;;;14.71;48.33;97084.78;4234231;28;6480;-65
2023/05/18 06:28:33;;;;;;;;;;;;;;;14.70;48.45;97091.16;4234320;28;5844;-64
2023/05/18 06:30:36;;;;;;;;;;;;;;;14.71;48.26;97090.13;4234083;27;5705;-66
2023/05/18 06:32:39;;;;;;;;;;;;;;;14.74;48.38;97089.72;4228071;28;5838;-65
2023/05/18 06:34:44;;;;;;;;;;;;;;;14.82;48.27;97090.28;4229365;28;5766;-65
2023/05/18 06:36:47;;;;;;;;;;;;;;;14.90;48.13;97097.19;4233969;28;5931;-65
2023/05/18 06:38:51;;;;;;;;;;;;;;;14.88;48.04;97099.25;4233967;28;5696;-65
2023/05/18 06:40:54;;;;;;;;;;;;;;;14.88;48.21;97096.59;4233938;28;5663;-65
2023/05/18 06:42:57;;;;;;;;;;;;;;;14.92;48.33;97102.31;4233937;28;5879;-65
2023/05/18 06:45:00;;;;;;;;;;;;;;;14.99;48.04;97103.91;4234256;28;6567;-65
2023/05/18 06:47:03;;;;;;;;;;;;;;;15.03;47.91;97105.13;4233900;28;5776;-65
2023/05/18 06:49:06;;;;;;;;;;;;;;;15.03;47.86;97101.63;4226679;28;5768;-65
2023/05/18 06:51:08;;;;;;;;;;;;;;;15.01;47.94;97109.84;4217131;28;5666;-65
2023/05/18 06:53:12;;;;;;;;;;;;;;;15.07;48.09;97109.00;4233710;28;5663;-65
2023/05/18 06:55:17;;;;;;;;;;;;;;;15.10;47.82;97105.91;4217277;28;5686;-65
2023/05/18 06:57:20;;;;;;;;;;;;;;;15.19;47.87;97108.31;4233430;28;5689;-64
2023/05/18 06:59:23;;;;;;;;;;;;;;;15.17;47.91;97113.03;4226303;28;5779;-64
2023/05/18 07:01:25;;;;;;;;;;;;;;;15.21;47.75;97119.56;4233519;28;5667;-65
2023/05/18 07:03:28;;;;;;;;;;;;;;;15.24;47.65;97113.81;4233587;28;5775;-65
2023/05/18 07:05:31;;;;;;;;;;;;;;;15.27;47.89;97113.38;4233319;28;5735;-65
2023/05/18 07:07:35;;;;;;;;;;;;;;;15.30;47.86;97115.63;4227791;27;5760;-65
2023/05/18 07:09:38;;;;;;;;;;;;;;;15.38;47.61;97112.69;4219951;28;5648;-65
2023/05/18 07:11:44;;;;;;;;;;;;;;;15.48;47.73;97125.53;4233000;28;5688;-65
2023/05/18 07:13:47;;;;;;;;;;;;;;;15.48;47.50;97118.34;4233233;28;5701;-65
2023/05/18 07:15:50;;;;;;;;;;;;;;;15.48;47.28;97115.69;4233533;28;5659;-65
2023/05/18 07:17:54;;;;;;;;;;;;;;;15.55;47.63;97124.47;4233299;28;5726;-65
2023/05/18 07:19:57;;;;;;;;;;;;;;;15.67;47.58;97120.09;4233218;27;5651;-65
2023/05/18 07:21:59;;;;;;;;;;;;;;;15.76;47.47;97122.50;4233501;28;5704;-65
2023/05/18 07:24:03;;;;;;;;;;;;;;;15.84;47.23;97124.88;4230816;28;5731;-65
2023/05/18 07:26:08;;;;;;;;;;;;;;;15.86;47.28;97120.16;4233014;28;5724;-65
2023/05/18 07:28:13;;;;;;;;;;;;;;;15.86;47.22;97118.31;4224297;28;6452;-65
2023/05/18 07:30:16;;;;;;;;;;;;;;;15.84;47.45;97117.69;4225023;28;6543;-66
2023/05/18 07:32:19;;;;;;;;;;;;;;;15.85;47.22;97121.97;4233156;28;5905;-66
2023/05/18 07:34:25;;;;;;;;;;;;;;;15.87;47.39;97121.78;4232674;28;5823;-65
2023/05/18 07:36:28;;;;;;;;;;;;;;;15.91;47.23;97120.31;4233264;28;5806;-66
2023/05/18 07:38:31;;;;;;;;;;;;;;;15.87;47.31;97122.59;4233060;28;5679;-66
2023/05/18 07:40:34;;;;;;;;;;;;;;;15.88;47.26;97120.75;4230488;28;5786;-66
2023/05/18 07:42:39;;;;;;;;;;;;;;;15.85;47.29;97116.66;4233289;28;5689;-66
2023/05/18 07:44:43;;;;;;;;;;;;;;;15.86;47.31;97120.97;4232755;28;5779;-66
2023/05/18 07:46:46;;;;;;;;;;;;;;;15.91;47.38;97126.44;4228149;28;5831;-66
2023/05/18 07:48:49;;;;;;;;;;;;;;;15.90;47.12;97124.00;4229657;28;5628;-66
2023/05/18 07:50:52;;;;;;;;;;;;;;;15.92;47.22;97129.94;4232828;28;5754;-66
2023/05/18 07:52:55;;;;;;;;;;;;;;;15.93;47.39;97128.88;4233404;28;5771;-65
2023/05/18 07:54:58;;;;;;;;;;;;;;;15.90;47.37;97130.16;4233099;27;5719;-66
2023/05/18 07:57:03;;;;;;;;;;;;;;;15.95;47.35;97134.81;4232123;28;5784;-66
2023/05/18 07:59:05;;;;;;;;;;;;;;;15.88;47.28;97128.75;4231854;28;5721;-66
2023/05/18 08:01:10;;;;;;;;;;;;;;;15.80;47.40;97132.50;4232691;28;5659;-65
2023/05/18 08:03:13;;;;;;;;;;;;;;;15.82;47.56;97126.94;4221211;28;5775;-66
2023/05/18 08:05:17;;;;;;;;;;;;;;;15.82;47.27;97137.59;4224027;28;5785;-65
2023/05/18 08:07:22;;;;;;;;;;;;;;;15.80;47.54;97127.16;4225660;28;5961;-66
2023/05/18 08:09:25;;;;;;;;;;;;;;;15.82;47.47;97137.59;4232970;28;5087;-66
2023/05/18 08:11:28;;;;;;;;;;;;;;;15.83;47.68;97128.56;4232685;28;7799;-65
2023/05/18 08:13:31;;;;;;;;;;;;;;;15.84;47.42;97135.53;4232661;28;5659;-66
2023/05/18 08:15:37;;;;;;;;;;;;;;;15.81;47.61;97138.63;4230415;28;5817;-67
2023/05/18 08:17:41;;;;;;;;;;;;;;;15.81;47.63;97139.44;4232839;28;5819;-66
2023/05/18 08:19:46;;;;;;;;;;;;;;;15.79;47.37;97138.03;4233023;28;5742;-66
2023/05/18 08:21:49;;;;;;;;;;;;;;;15.77;47.40;97132.13;4225114;28;6007;-67
2023/05/18 08:23:52;;;;;;;;;;;;;;;15.76;47.59;97138.50;4220689;28;5703;-66
2023/05/18 08:25:55;;;;;;;;;;;;;;;15.77;47.35;97135.59;4220161;28;5820;-70
2023/05/18 08:27:58;;;;;;;;;;;;;;;15.82;47.46;97132.25;4224012;28;5766;-65
2023/05/18 08:30:01;;;;;;;;;;;;;;;15.84;47.50;97135.53;4231812;28;5835;-66
2023/05/18 08:32:05;;;;;;;;;;;;;;;15.82;47.36;97134.94;4223442;28;5655;-66
2023/05/18 08:34:10;;;;;;;;;;;;;;;15.82;47.30;97137.59;4232230;28;5767;-66
2023/05/18 08:36:13;;;;;;;;;;;;;;;15.82;47.33;97137.59;4220882;28;5587;-65
2023/05/18 08:38:16;;;;;;;;;;;;;;;15.85;47.34;97137.16;4224993;28;7720;-65
2023/05/18 08:40:19;;;;;;;;;;;;;;;15.86;47.32;97133.47;4229506;28;5633;-66
2023/05/18 08:42:27;;;;;;;;;;;;;;;15.86;47.56;97136.16;4234425;28;5601;-65
2023/05/18 08:44:50;;;;;;;;;;;;;;;15.86;47.50;97133.47;4209106;28;5653;-65
2023/05/18 08:46:55;;;;;;;;;;;;;;;15.90;47.56;97134.66;4229911;28;5704;-65
2023/05/18 08:48:58;;;;;;;;;;;;;;;15.95;47.18;97134.81;4224891;28;5654;-65
2023/05/18 08:51:06;;;;;;;;;;;;;;;16.01;47.27;97125.97;4234161;28;5790;-65
2023/05/18 08:53:10;;;;;;;;;;;;;;;16.07;47.18;97119.72;4235492;28;5735;-65
2023/05/18 08:55:16;;;;;;;;;;;;;;;16.13;47.02;97128.72;4228227;28;5616;-65
2023/05/18 08:57:22;;;;;;;;;;;;;;;16.18;47.16;97132.34;4227858;28;5721;-65
2023/05/18 08:59:27;;;;;;;;;;;;;;;16.21;46.98;97133.78;4233008;28;5697;-65
2023/05/18 09:01:30;;;;;;;;;;;;;;;16.22;46.93;97143.41;4235300;27;5657;-65
2023/05/18 09:03:34;;;;;;;;;;;;;;;16.19;47.09;97133.97;4222845;28;5693;-64
2023/05/18 09:05:38;;;;;;;;;;;;;;;16.21;47.11;97139.13;4220666;27;5593;-65
2023/05/18 09:07:43;;;;;;;;;;;;;;;16.22;46.94;97136.22;4231902;28;5747;-65
2023/05/18 09:09:47;;;;;;;;;;;;;;;16.26;47.03;97133.91;4232312;28;5751;-65
2023/05/18 09:11:51;;;;;;;;;;;;;;;16.28;46.90;97132.66;4224838;28;5639;-66
2023/05/18 09:13:55;;;;;;;;;;;;;;;16.28;47.14;97121.16;4235381;28;5598;-66
2023/05/18 09:15:58;;;;;;;;;;;;;;;16.29;47.05;97128.94;4232202;28;5803;-66
2023/05/18 09:18:01;;;;;;;;;;;;;;;16.24;46.87;97136.81;4231796;28;5759;-66
2023/05/18 09:20:05;;;;;;;;;;;;;;;16.25;47.03;97140.28;4226643;28;5677;-67
2023/05/18 09:22:08;;;;;;;;;;;;;;;16.28;46.85;97126.50;4233759;28;5594;-66
2023/05/18 09:24:14;;;;;;;;;;;;;;;16.33;47.04;97142.69;4235092;28;5650;-66
2023/05/18 09:26:17;;;;;;;;;;;;;;;16.37;47.24;97141.19;4226951;28;5685;-66
2023/05/18 09:28:27;;;;;;;;;;;;;;;16.40;47.21;97137.25;4236439;28;5688;-66
2023/05/18 09:30:30;;;;;;;;;;;;;;;16.40;47.25;97135.41;4231113;28;5751;-66
2023/05/18 09:32:36;;;;;;;;;;;;;;;16.41;47.30;97122.88;4230155;28;5910;-66
2023/05/18 09:34:44;;;;;;;;;;;;;;;16.45;47.31;97130.22;4234752;28;6435;-66
2023/05/18 09:36:51;;;;;;;;;;;;;;;16.53;47.30;97129.09;4224032;28;5620;-66
2023/05/18 09:38:54;;;;;;;;;;;;;;;16.54;47.09;97142.25;4227944;28;5617;-66
2023/05/18 09:40:59;;;;;;;;;;;;;;;16.53;47.24;97134.44;4226144;28;5613;-66
2023/05/18 09:43:07;;;;;;;;;;;;;;;16.50;47.06;97135.72;4227587;27;5779;-65
2023/05/18 09:45:17;;;;;;;;;;;;;;;16.49;47.15;97130.59;4231497;28;5637;-66
2023/05/18 09:47:20;;;;;;;;;;;;;;;16.54;47.28;97141.44;4220576;28;5609;-65
2023/05/18 09:49:24;;;;;;;;;;;;;;;16.60;47.24;97135.19;4234248;28;5715;-65
2023/05/18 09:51:27;;;;;;;;;;;;;;;16.65;47.31;97132.69;4221949;28;5760;-65
2023/05/18 09:53:29;;;;;;;;;;;;;;;16.67;47.04;97130.59;4224755;28;5670;-64
2023/05/18 09:55:33;;;;;;;;;;;;;;;16.68;47.29;97132.25;4225985;28;5931;-63
2023/05/18 09:57:40;;;;;;;;;;;;;;;16.67;47.36;97122.59;4233029;28;5692;-64
2023/05/18 09:59:43;;;;;;;;;;;;;;;16.67;47.13;97127.13;4233454;28;5765;-64
2023/05/18 10:01:56;;;;;;;;;;;;;;;16.59;47.39;97128.22;4231562;28;5730;-64
2023/05/18 10:04:03;;;;;;;;;;;;;;;16.58;47.25;97121.25;4234404;28;5685;-64
2023/05/18 10:06:08;;;;;;;;;;;;;;;16.56;47.14;97128.69;4227715;28;5709;-64
2023/05/18 10:08:12;;;;;;;;;;;;;;;16.51;47.23;97128.50;4232843;28;5693;-65
2023/05/18 10:10:19;;;;;;;;;;;;;;;16.50;47.30;97129.56;4229794;28;5655;-65
2023/05/18 10:12:23;;;;;;;;;;;;;;;16.53;47.04;97131.78;4227051;28;5594;-66
2023/05/18 10:14:35;;;;;;;;;;;;;;;16.56;47.26;97129.50;4215563;28;5609;-65
2023/05/18 10:16:38;;;;;;;;;;;;;;;16.60;47.04;97127.19;4235090;28;5733;-65
2023/05/18 10:18:41;;;;;;;;;;;;;;;16.66;46.88;97123.63;4230083;28;5864;-65
2023/05/18 10:20:47;;;;;;;;;;;;;;;16.71;46.99;97131.00;4224942;28;5602;-64
2023/05/18 10:22:51;;;;;;;;;;;;;;;16.73;47.18;97123.56;4230587;28;5879;-64
2023/05/18 10:24:55;;;;;;;;;;;;;;;16.73;46.84;97126.25;4222774;28;5727;-64
2023/05/18 10:27:01;;;;;;;;;;;;;;;16.75;46.87;97124.16;4228620;28;5602;-68
2023/05/18 10:29:06;;;;;;;;;;;;;;;16.77;46.89;97117.59;4232393;27;5657;-68
2023/05/18 10:31:10;;;;;;;;;;;;;;;16.77;46.88;97109.56;4224350;27;5759;-66
2023/05/18 10:33:15;;;;;;;;;;;;;;;16.78;46.84;97113.88;4230712;27;5610;-66
2023/05/18 10:35:32;;;;;;;;;;;;;;;16.81;46.84;97113.41;4233302;28;5659;-67
2023/05/18 10:37:36;;;;;;;;;;;;;;;16.85;46.79;97109.25;4207948;28;5732;-66
2023/05/18 10:39:44;;;;;;;;;;;;;;;16.88;46.77;97105.34;4231909;27;5752;-67
2023/05/18 10:41:49;;;;;;;;;;;;;;;16.91;46.81;97104.06;4219646;27;6465;-66
2023/05/18 10:44:00;;;;;;;;;;;;;;;16.92;46.81;97106.50;4225617;28;5617;-66
2023/05/18 10:46:07;;;;;;;;;;;;;;;16.87;46.70;97107.19;4218324;28;5852;-66
2023/05/18 10:48:12;;;;;;;;;;;;;;;16.86;46.57;97097.53;4216942;27;5791;-71
2023/05/18 10:50:16;;;;;;;;;;;;;;;16.88;46.54;97100.81;4216318;28;5613;-67
2023/05/18 10:52:20;;;;;;;;;;;;;;;16.90;46.56;97099.75;4232822;28;5671;-65
2023/05/18 10:54:23;;;;;;;;;;;;;;;16.92;46.55;97105.69;4216115;27;5807;-68
2023/05/18 10:56:28;;;;;;;;;;;;;;;16.85;46.59;97105.75;4222676;28;6621;-66